sensor_id;sensor_type;location;lat;lon;timestamp;noise_LAeq;noise_LA_min;noise_LA_max;noise_LA01;noise_LA95
72466;Laerm;60471;52.150;4.508;2024-02-04T00:01:00;69.65;46.25;88.56;;
72466;Laerm;60471;52.150;4.508;2024-02-04T00:03:26;69.93;44.96;89.29;;
72466;Laerm;60471;52.150;4.508;2024-02-04T00:05:52;69.61;45.44;88.03;;
72466;Laerm;60471;52.150;4.508;2024-02-04T00:08:19;69.81;46.90;87.96;;
72466;Laerm;60471;52.150;4.508;2024-02-04T00:10:45;69.64;44.72;88.80;;
72466;Laerm;60471;52.150;4.508;2024-02-04T00:13:11;69.70;44.35;89.44;;
72466;Laerm;60471;52.150;4.508;2024-02-04T00:15:37;69.66;44.66;88.62;;
72466;Laerm;60471;52.150;4.508;2024-02-04T00:18:04;69.62;44.96;88.05;;
72466;Laerm;60471;52.150;4.508;2024-02-04T00:20:30;69.72;45.90;87.50;;
72466;Laerm;60471;52.150;4.508;2024-02-04T00:22:58;69.71;45.39;88.75;;
72466;Laerm;60471;52.150;4.508;2024-02-04T00:25:24;69.52;44.11;87.61;;
72466;Laerm;60471;52.150;4.508;2024-02-04T00:27:51;69.46;43.45;88.80;;
72466;Laerm;60471;52.150;4.508;2024-02-04T00:30:17;69.57;43.97;89.12;;
72466;Laerm;60471;52.150;4.508;2024-02-04T00:32:43;69.47;43.84;87.53;;
72466;Laerm;60471;52.150;4.508;2024-02-04T00:35:09;69.40;44.24;87.61;;
72466;Laerm;60471;52.150;4.508;2024-02-04T00:37:35;69.61;44.28;88.04;;
72466;Laerm;60471;52.150;4.508;2024-02-04T00:40:02;69.52;43.26;87.28;;
72466;Laerm;60471;52.150;4.508;2024-02-04T00:42:28;69.50;41.87;87.20;;
72466;Laerm;60471;52.150;4.508;2024-02-04T00:44:54;69.56;43.18;88.42;;
72466;Laerm;60471;52.150;4.508;2024-02-04T00:47:21;69.52;41.82;88.03;;
72466;Laerm;60471;52.150;4.508;2024-02-04T00:49:47;69.61;42.65;88.93;;
72466;Laerm;60471;52.150;4.508;2024-02-04T00:52:13;69.57;41.14;87.66;;
72466;Laerm;60471;52.150;4.508;2024-02-04T00:54:39;69.62;42.44;87.77;;
72466;Laerm;60471;52.150;4.508;2024-02-04T00:57:05;69.76;42.15;88.55;;
72466;Laerm;60471;52.150;4.508;2024-02-04T00:59:31;69.50;43.08;88.57;;
72466;Laerm;60471;52.150;4.508;2024-02-04T01:01:58;69.55;41.85;88.72;;
72466;Laerm;60471;52.150;4.508;2024-02-04T01:04:25;69.65;42.89;88.16;;
72466;Laerm;60471;52.150;4.508;2024-02-04T01:06:51;69.75;41.11;88.72;;
72466;Laerm;60471;52.150;4.508;2024-02-04T01:09:17;69.57;41.75;87.83;;
72466;Laerm;60471;52.150;4.508;2024-02-04T01:11:43;69.52;42.13;89.34;;
72466;Laerm;60471;52.150;4.508;2024-02-04T01:14:10;69.49;41.46;87.67;;
72466;Laerm;60471;52.150;4.508;2024-02-04T01:16:36;69.56;40.97;89.64;;
72466;Laerm;60471;52.150;4.508;2024-02-04T01:19:02;69.63;42.06;88.33;;
72466;Laerm;60471;52.150;4.508;2024-02-04T01:21:28;69.59;41.96;87.76;;
72466;Laerm;60471;52.150;4.508;2024-02-04T01:23:55;69.53;41.51;88.33;;
72466;Laerm;60471;52.150;4.508;2024-02-04T01:26:22;69.79;43.24;88.53;;
72466;Laerm;60471;52.150;4.508;2024-02-04T01:28:50;69.45;41.82;87.45;;
72466;Laerm;60471;52.150;4.508;2024-02-04T01:31:16;69.51;41.80;89.02;;
72466;Laerm;60471;52.150;4.508;2024-02-04T01:33:42;69.62;41.55;88.14;;
72466;Laerm;60471;52.150;4.508;2024-02-04T01:36:08;69.59;40.23;88.17;;
72466;Laerm;60471;52.150;4.508;2024-02-04T01:38:35;69.66;41.15;89.00;;
72466;Laerm;60471;52.150;4.508;2024-02-04T01:41:01;69.55;40.84;88.15;;
72466;Laerm;60471;52.150;4.508;2024-02-04T01:43:27;69.58;40.76;89.10;;
72466;Laerm;60471;52.150;4.508;2024-02-04T01:45:53;69.69;40.45;88.73;;
72466;Laerm;60471;52.150;4.508;2024-02-04T01:48:21;69.57;40.64;88.37;;
72466;Laerm;60471;52.150;4.508;2024-02-04T01:50:50;69.57;41.06;88.58;;
72466;Laerm;60471;52.150;4.508;2024-02-04T01:53:20;69.56;42.11;89.65;;
72466;Laerm;60471;52.150;4.508;2024-02-04T01:55:47;69.59;41.09;88.50;;
72466;Laerm;60471;52.150;4.508;2024-02-04T01:58:15;69.65;41.09;88.14;;
72466;Laerm;60471;52.150;4.508;2024-02-04T02:00:42;69.80;40.97;87.87;;
72466;Laerm;60471;52.150;4.508;2024-02-04T02:03:12;69.60;40.60;89.41;;
72466;Laerm;60471;52.150;4.508;2024-02-04T02:05:40;69.62;40.37;88.90;;
72466;Laerm;60471;52.150;4.508;2024-02-04T02:08:08;69.59;40.97;88.67;;
72466;Laerm;60471;52.150;4.508;2024-02-04T02:10:34;69.54;41.83;87.67;;
72466;Laerm;60471;52.150;4.508;2024-02-04T02:13:30;68.98;40.56;88.77;;
72466;Laerm;60471;52.150;4.508;2024-02-04T02:16:15;69.11;41.00;88.63;;
72466;Laerm;60471;52.150;4.508;2024-02-04T02:22:06;68.90;40.54;90.21;;
72466;Laerm;60471;52.150;4.508;2024-02-04T02:24:38;69.28;40.87;88.55;;
72466;Laerm;60471;52.150;4.508;2024-02-04T02:27:05;69.48;40.66;87.60;;
72466;Laerm;60471;52.150;4.508;2024-02-04T02:29:32;69.70;41.90;89.51;;
72466;Laerm;60471;52.150;4.508;2024-02-04T02:32:02;69.56;41.29;88.05;;
72466;Laerm;60471;52.150;4.508;2024-02-04T02:34:32;69.59;41.45;88.24;;
72466;Laerm;60471;52.150;4.508;2024-02-04T02:37:26;69.14;39.96;88.86;;
72466;Laerm;60471;52.150;4.508;2024-02-04T02:40:03;69.25;40.41;88.74;;
72466;Laerm;60471;52.150;4.508;2024-02-04T02:42:32;69.62;40.12;88.29;;
72466;Laerm;60471;52.150;4.508;2024-02-04T02:45:00;69.78;40.91;88.48;;
72466;Laerm;60471;52.150;4.508;2024-02-04T02:47:29;69.78;40.35;88.69;;
72466;Laerm;60471;52.150;4.508;2024-02-04T02:49:55;69.88;40.03;88.39;;
72466;Laerm;60471;52.150;4.508;2024-02-04T02:52:22;69.86;41.42;89.52;;
72466;Laerm;60471;52.150;4.508;2024-02-04T02:54:48;69.86;41.27;88.34;;
72466;Laerm;60471;52.150;4.508;2024-02-04T02:57:14;69.85;40.15;89.83;;
72466;Laerm;60471;52.150;4.508;2024-02-04T02:59:40;69.87;40.45;88.83;;
72466;Laerm;60471;52.150;4.508;2024-02-04T03:02:07;69.84;41.13;88.05;;
72466;Laerm;60471;52.150;4.508;2024-02-04T03:04:33;69.99;41.40;88.29;;
72466;Laerm;60471;52.150;4.508;2024-02-04T03:06:59;70.04;40.26;89.41;;
72466;Laerm;60471;52.150;4.508;2024-02-04T03:09:25;69.68;40.85;88.46;;
72466;Laerm;60471;52.150;4.508;2024-02-04T03:11:52;69.89;40.08;89.81;;
72466;Laerm;60471;52.150;4.508;2024-02-04T03:14:20;69.83;39.21;87.93;;
72466;Laerm;60471;52.150;4.508;2024-02-04T03:16:46;69.91;40.18;89.27;;
72466;Laerm;60471;52.150;4.508;2024-02-04T03:19:12;69.91;39.95;87.98;;
72466;Laerm;60471;52.150;4.508;2024-02-04T03:21:38;69.84;40.48;88.88;;
72466;Laerm;60471;52.150;4.508;2024-02-04T03:24:05;69.90;40.05;89.16;;
72466;Laerm;60471;52.150;4.508;2024-02-04T03:26:31;69.93;40.78;88.11;;
72466;Laerm;60471;52.150;4.508;2024-02-04T03:28:58;69.92;39.40;87.70;;
72466;Laerm;60471;52.150;4.508;2024-02-04T03:31:24;70.00;39.76;89.08;;
72466;Laerm;60471;52.150;4.508;2024-02-04T03:33:50;69.96;39.71;89.34;;
72466;Laerm;60471;52.150;4.508;2024-02-04T03:36:21;69.90;40.58;90.09;;
72466;Laerm;60471;52.150;4.508;2024-02-04T03:38:52;69.56;41.39;89.40;;
72466;Laerm;60471;52.150;4.508;2024-02-04T03:41:19;69.87;39.88;88.92;;
72466;Laerm;60471;52.150;4.508;2024-02-04T03:43:45;69.91;40.10;88.97;;
72466;Laerm;60471;52.150;4.508;2024-02-04T03:46:15;69.83;40.87;88.71;;
72466;Laerm;60471;52.150;4.508;2024-02-04T03:48:42;69.71;39.67;88.04;;
72466;Laerm;60471;52.150;4.508;2024-02-04T03:51:15;69.79;40.20;89.12;;
72466;Laerm;60471;52.150;4.508;2024-02-04T03:53:43;69.77;41.79;88.95;;
72466;Laerm;60471;52.150;4.508;2024-02-04T03:56:10;69.97;41.41;89.45;;
72466;Laerm;60471;52.150;4.508;2024-02-04T03:58:36;69.87;40.37;89.15;;
72466;Laerm;60471;52.150;4.508;2024-02-04T04:01:03;69.98;42.29;87.55;;
72466;Laerm;60471;52.150;4.508;2024-02-04T04:03:29;69.89;40.68;89.76;;
72466;Laerm;60471;52.150;4.508;2024-02-04T04:05:56;70.01;41.88;89.30;;
72466;Laerm;60471;52.150;4.508;2024-02-04T04:08:22;69.79;41.27;87.93;;
72466;Laerm;60471;52.150;4.508;2024-02-04T04:10:48;70.12;41.34;89.12;;
72466;Laerm;60471;52.150;4.508;2024-02-04T04:13:14;69.92;41.45;88.83;;
72466;Laerm;60471;52.150;4.508;2024-02-04T04:15:41;70.06;41.85;88.83;;
72466;Laerm;60471;52.150;4.508;2024-02-04T04:18:08;70.04;41.99;89.63;;
72466;Laerm;60471;52.150;4.508;2024-02-04T04:20:37;69.99;41.31;88.34;;
72466;Laerm;60471;52.150;4.508;2024-02-04T04:23:03;70.06;40.89;88.98;;
72466;Laerm;60471;52.150;4.508;2024-02-04T04:25:29;69.95;41.27;88.56;;
72466;Laerm;60471;52.150;4.508;2024-02-04T04:27:56;70.00;42.40;88.86;;
72466;Laerm;60471;52.150;4.508;2024-02-04T04:30:24;70.07;42.68;88.97;;
72466;Laerm;60471;52.150;4.508;2024-02-04T04:32:50;70.08;41.71;88.08;;
72466;Laerm;60471;52.150;4.508;2024-02-04T04:35:16;69.92;41.32;88.21;;
72466;Laerm;60471;52.150;4.508;2024-02-04T04:37:43;70.14;40.76;89.34;;
72466;Laerm;60471;52.150;4.508;2024-02-04T04:40:10;70.24;40.52;88.77;;
72466;Laerm;60471;52.150;4.508;2024-02-04T04:42:36;70.15;40.55;89.08;;
72466;Laerm;60471;52.150;4.508;2024-02-04T04:45:02;70.25;41.28;89.75;;
72466;Laerm;60471;52.150;4.508;2024-02-04T04:47:28;70.20;40.49;89.06;;
72466;Laerm;60471;52.150;4.508;2024-02-04T04:49:55;70.14;41.20;88.48;;
72466;Laerm;60471;52.150;4.508;2024-02-04T04:52:21;70.29;42.90;89.06;;
72466;Laerm;60471;52.150;4.508;2024-02-04T04:54:47;70.15;41.44;89.80;;
72466;Laerm;60471;52.150;4.508;2024-02-04T04:57:14;70.04;41.63;87.61;;
72466;Laerm;60471;52.150;4.508;2024-02-04T04:59:40;70.16;41.28;89.28;;
72466;Laerm;60471;52.150;4.508;2024-02-04T05:02:06;70.19;41.77;89.24;;
72466;Laerm;60471;52.150;4.508;2024-02-04T05:04:33;70.16;42.92;88.15;;
72466;Laerm;60471;52.150;4.508;2024-02-04T05:06:59;70.14;41.56;89.47;;
72466;Laerm;60471;52.150;4.508;2024-02-04T05:09:25;70.08;43.11;88.08;;
72466;Laerm;60471;52.150;4.508;2024-02-04T05:11:51;70.09;42.09;88.41;;
72466;Laerm;60471;52.150;4.508;2024-02-04T05:14:17;70.02;41.23;87.44;;
72466;Laerm;60471;52.150;4.508;2024-02-04T05:16:43;70.04;43.28;89.51;;
72466;Laerm;60471;52.150;4.508;2024-02-04T05:19:11;70.01;44.19;89.05;;
72466;Laerm;60471;52.150;4.508;2024-02-04T05:21:39;69.98;44.13;89.43;;
72466;Laerm;60471;52.150;4.508;2024-02-04T05:24:06;69.91;43.77;87.98;;
72466;Laerm;60471;52.150;4.508;2024-02-04T05:26:32;69.88;43.56;87.98;;
72466;Laerm;60471;52.150;4.508;2024-02-04T05:28:58;69.97;43.88;89.08;;
72466;Laerm;60471;52.150;4.508;2024-02-04T05:31:24;69.96;43.44;88.30;;
72466;Laerm;60471;52.150;4.508;2024-02-04T05:33:52;69.99;44.02;88.58;;
72466;Laerm;60471;52.150;4.508;2024-02-04T05:36:19;69.85;43.43;88.65;;
72466;Laerm;60471;52.150;4.508;2024-02-04T05:38:45;69.76;43.21;88.76;;
72466;Laerm;60471;52.150;4.508;2024-02-04T05:41:12;69.99;45.47;87.88;;
72466;Laerm;60471;52.150;4.508;2024-02-04T05:43:39;70.05;44.87;88.69;;
72466;Laerm;60471;52.150;4.508;2024-02-04T05:46:05;69.99;46.76;88.51;;
72466;Laerm;60471;52.150;4.508;2024-02-04T05:48:31;70.04;43.87;89.36;;
72466;Laerm;60471;52.150;4.508;2024-02-04T05:50:57;69.93;45.22;88.68;;
72466;Laerm;60471;52.150;4.508;2024-02-04T05:53:25;69.89;45.19;88.61;;
72466;Laerm;60471;52.150;4.508;2024-02-04T05:55:51;69.92;45.08;89.43;;
72466;Laerm;60471;52.150;4.508;2024-02-04T05:58:17;70.06;44.78;89.36;;
72466;Laerm;60471;52.150;4.508;2024-02-04T06:00:43;69.82;44.49;88.87;;
72466;Laerm;60471;52.150;4.508;2024-02-04T06:03:09;69.88;45.67;88.86;;
72466;Laerm;60471;52.150;4.508;2024-02-04T06:05:36;69.99;45.03;88.99;;
72466;Laerm;60471;52.150;4.508;2024-02-04T06:08:02;70.01;45.84;88.74;;
72466;Laerm;60471;52.150;4.508;2024-02-04T06:10:28;69.98;45.71;89.40;;
72466;Laerm;60471;52.150;4.508;2024-02-04T06:12:55;69.86;46.48;88.27;;
72466;Laerm;60471;52.150;4.508;2024-02-04T06:15:21;70.05;46.17;88.83;;
72466;Laerm;60471;52.150;4.508;2024-02-04T06:17:47;69.99;45.45;89.38;;
72466;Laerm;60471;52.150;4.508;2024-02-04T06:20:13;69.91;46.61;88.42;;
72466;Laerm;60471;52.150;4.508;2024-02-04T06:22:40;69.94;45.54;89.51;;
72466;Laerm;60471;52.150;4.508;2024-02-04T06:25:07;69.93;45.87;89.29;;
72466;Laerm;60471;52.150;4.508;2024-02-04T06:27:33;69.96;46.45;88.52;;
72466;Laerm;60471;52.150;4.508;2024-02-04T06:29:59;69.94;47.41;88.63;;
72466;Laerm;60471;52.150;4.508;2024-02-04T06:32:25;69.95;46.11;88.30;;
72466;Laerm;60471;52.150;4.508;2024-02-04T06:34:51;70.04;47.38;87.71;;
72466;Laerm;60471;52.150;4.508;2024-02-04T06:37:20;69.97;47.58;89.03;;
72466;Laerm;60471;52.150;4.508;2024-02-04T06:39:46;69.95;47.03;88.78;;
72466;Laerm;60471;52.150;4.508;2024-02-04T06:42:12;69.94;46.65;89.36;;
72466;Laerm;60471;52.150;4.508;2024-02-04T06:44:38;70.00;48.33;88.03;;
72466;Laerm;60471;52.150;4.508;2024-02-04T06:47:05;69.91;46.88;88.48;;
72466;Laerm;60471;52.150;4.508;2024-02-04T06:49:31;69.98;48.40;88.36;;
72466;Laerm;60471;52.150;4.508;2024-02-04T06:51:57;69.94;46.36;88.79;;
72466;Laerm;60471;52.150;4.508;2024-02-04T06:54:23;69.98;48.09;88.35;;
72466;Laerm;60471;52.150;4.508;2024-02-04T06:56:51;69.82;47.03;88.19;;
72466;Laerm;60471;52.150;4.508;2024-02-04T06:59:18;69.98;47.35;88.63;;
72466;Laerm;60471;52.150;4.508;2024-02-04T07:01:45;69.90;47.90;88.35;;
72466;Laerm;60471;52.150;4.508;2024-02-04T07:04:11;69.85;45.98;88.70;;
72466;Laerm;60471;52.150;4.508;2024-02-04T07:06:37;70.06;46.79;88.80;;
72466;Laerm;60471;52.150;4.508;2024-02-04T07:09:04;70.03;45.21;89.11;;
72466;Laerm;60471;52.150;4.508;2024-02-04T07:11:30;70.04;46.82;88.67;;
72466;Laerm;60471;52.150;4.508;2024-02-04T07:13:56;69.92;49.74;87.67;;
72466;Laerm;60471;52.150;4.508;2024-02-04T07:16:26;69.87;46.02;88.09;;
72466;Laerm;60471;52.150;4.508;2024-02-04T07:18:55;69.77;46.54;88.46;;
72466;Laerm;60471;52.150;4.508;2024-02-04T07:21:22;69.73;46.08;87.98;;
72466;Laerm;60471;52.150;4.508;2024-02-04T07:23:48;70.10;46.77;88.71;;
72466;Laerm;60471;52.150;4.508;2024-02-04T07:26:14;70.00;44.83;88.53;;
72466;Laerm;60471;52.150;4.508;2024-02-04T07:28:41;69.94;47.01;88.32;;
72466;Laerm;60471;52.150;4.508;2024-02-04T07:31:07;69.89;46.62;88.24;;
72466;Laerm;60471;52.150;4.508;2024-02-04T07:33:34;70.09;46.73;89.22;;
72466;Laerm;60471;52.150;4.508;2024-02-04T07:36:00;69.95;46.33;89.75;;
72466;Laerm;60471;52.150;4.508;2024-02-04T07:38:26;70.04;47.90;88.22;;
72466;Laerm;60471;52.150;4.508;2024-02-04T07:40:52;70.13;48.05;87.80;;
72466;Laerm;60471;52.150;4.508;2024-02-04T07:43:20;69.98;48.22;88.94;;
72466;Laerm;60471;52.150;4.508;2024-02-04T07:45:46;69.86;48.20;87.98;;
72466;Laerm;60471;52.150;4.508;2024-02-04T07:48:13;70.00;49.49;87.75;;
72466;Laerm;60471;52.150;4.508;2024-02-04T07:50:39;70.08;49.29;88.85;;
72466;Laerm;60471;52.150;4.508;2024-02-04T07:53:06;70.06;49.23;87.80;;
72466;Laerm;60471;52.150;4.508;2024-02-04T07:55:32;70.09;48.73;89.13;;
72466;Laerm;60471;52.150;4.508;2024-02-04T07:57:58;70.02;48.47;88.88;;
72466;Laerm;60471;52.150;4.508;2024-02-04T08:00:24;69.92;49.73;88.76;;
72466;Laerm;60471;52.150;4.508;2024-02-04T08:02:50;70.02;50.17;88.30;;
72466;Laerm;60471;52.150;4.508;2024-02-04T08:05:17;70.07;49.47;88.72;;
72466;Laerm;60471;52.150;4.508;2024-02-04T08:07:43;70.10;49.76;89.09;;
72466;Laerm;60471;52.150;4.508;2024-02-04T08:10:09;70.14;49.24;90.50;;
72466;Laerm;60471;52.150;4.508;2024-02-04T08:12:36;70.10;50.58;88.24;;
72466;Laerm;60471;52.150;4.508;2024-02-04T08:15:03;70.09;50.26;89.73;;
72466;Laerm;60471;52.150;4.508;2024-02-04T08:17:30;70.18;51.28;88.23;;
72466;Laerm;60471;52.150;4.508;2024-02-04T08:19:58;70.10;50.80;88.58;;
72466;Laerm;60471;52.150;4.508;2024-02-04T08:22:24;70.14;51.33;87.67;;
72466;Laerm;60471;52.150;4.508;2024-02-04T08:24:50;70.18;50.55;88.06;;
72466;Laerm;60471;52.150;4.508;2024-02-04T08:27:17;70.08;50.61;89.27;;
72466;Laerm;60471;52.150;4.508;2024-02-04T08:29:44;70.11;52.26;89.77;;
72466;Laerm;60471;52.150;4.508;2024-02-04T08:32:10;70.17;51.33;88.67;;
72466;Laerm;60471;52.150;4.508;2024-02-04T08:34:38;69.99;51.64;88.66;;
72466;Laerm;60471;52.150;4.508;2024-02-04T08:37:05;70.06;50.75;87.98;;
72466;Laerm;60471;52.150;4.508;2024-02-04T08:39:31;70.20;51.78;88.35;;
72466;Laerm;60471;52.150;4.508;2024-02-04T08:41:57;70.19;51.74;87.92;;
72466;Laerm;60471;52.150;4.508;2024-02-04T08:44:23;70.21;51.96;89.51;;
72466;Laerm;60471;52.150;4.508;2024-02-04T08:46:50;70.26;52.58;88.55;;
72466;Laerm;60471;52.150;4.508;2024-02-04T08:49:16;70.47;51.35;87.72;;
72466;Laerm;60471;52.150;4.508;2024-02-04T08:51:43;70.33;51.97;89.74;;
72466;Laerm;60471;52.150;4.508;2024-02-04T08:54:09;70.29;53.52;87.72;;
72466;Laerm;60471;52.150;4.508;2024-02-04T08:56:35;70.30;52.99;89.05;;
72466;Laerm;60471;52.150;4.508;2024-02-04T08:59:01;70.20;50.77;88.22;;
72466;Laerm;60471;52.150;4.508;2024-02-04T09:01:28;70.42;51.30;88.62;;
72466;Laerm;60471;52.150;4.508;2024-02-04T09:03:54;70.18;51.50;89.41;;
72466;Laerm;60471;52.150;4.508;2024-02-04T09:06:20;70.21;51.72;89.04;;
72466;Laerm;60471;52.150;4.508;2024-02-04T09:08:47;70.45;50.93;89.27;;
72466;Laerm;60471;52.150;4.508;2024-02-04T09:11:13;70.10;49.12;87.82;;
72466;Laerm;60471;52.150;4.508;2024-02-04T09:13:45;69.85;53.18;87.94;;
72466;Laerm;60471;52.150;4.508;2024-02-04T09:16:11;70.50;52.80;87.67;;
72466;Laerm;60471;52.150;4.508;2024-02-04T09:18:38;70.27;52.52;88.45;;
72466;Laerm;60471;52.150;4.508;2024-02-04T09:21:04;70.31;52.24;87.89;;
72466;Laerm;60471;52.150;4.508;2024-02-04T09:23:30;70.47;52.21;87.89;;
72466;Laerm;60471;52.150;4.508;2024-02-04T09:25:56;70.48;53.29;88.46;;
72466;Laerm;60471;52.150;4.508;2024-02-04T09:28:24;70.35;51.85;89.86;;
72466;Laerm;60471;52.150;4.508;2024-02-04T09:30:50;70.47;52.71;88.85;;
72466;Laerm;60471;52.150;4.508;2024-02-04T09:33:17;70.27;52.85;88.01;;
72466;Laerm;60471;52.150;4.508;2024-02-04T09:35:43;70.35;52.09;88.73;;
72466;Laerm;60471;52.150;4.508;2024-02-04T09:38:09;70.38;51.86;88.85;;
72466;Laerm;60471;52.150;4.508;2024-02-04T09:40:36;70.49;52.32;89.79;;
72466;Laerm;60471;52.150;4.508;2024-02-04T09:43:02;70.37;52.30;88.69;;
72466;Laerm;60471;52.150;4.508;2024-02-04T09:45:29;70.15;50.54;87.58;;
72466;Laerm;60471;52.150;4.508;2024-02-04T09:47:58;70.24;50.52;88.13;;
72466;Laerm;60471;52.150;4.508;2024-02-04T09:50:26;69.93;51.98;89.06;;
72466;Laerm;60471;52.150;4.508;2024-02-04T09:52:58;70.20;52.91;88.15;;
72466;Laerm;60471;52.150;4.508;2024-02-04T09:55:26;70.14;52.20;88.12;;
72466;Laerm;60471;52.150;4.508;2024-02-04T09:57:54;70.37;52.21;89.17;;
72466;Laerm;60471;52.150;4.508;2024-02-04T10:00:20;70.31;51.35;88.07;;
72466;Laerm;60471;52.150;4.508;2024-02-04T10:02:48;70.38;53.08;88.16;;
72466;Laerm;60471;52.150;4.508;2024-02-04T10:05:15;70.24;52.00;87.79;;
72466;Laerm;60471;52.150;4.508;2024-02-04T10:07:42;70.52;52.23;89.90;;
72466;Laerm;60471;52.150;4.508;2024-02-04T10:10:09;70.38;52.65;89.86;;
72466;Laerm;60471;52.150;4.508;2024-02-04T10:12:37;70.45;53.26;88.65;;
72466;Laerm;60471;52.150;4.508;2024-02-04T10:15:05;70.32;52.86;88.23;;
72466;Laerm;60471;52.150;4.508;2024-02-04T10:17:32;70.27;52.51;88.10;;
72466;Laerm;60471;52.150;4.508;2024-02-04T10:20:01;70.07;52.71;88.23;;
72466;Laerm;60471;52.150;4.508;2024-02-04T10:22:27;70.42;52.67;89.85;;
72466;Laerm;60471;52.150;4.508;2024-02-04T10:25:06;69.98;53.48;89.71;;
72466;Laerm;60471;52.150;4.508;2024-02-04T10:27:35;70.14;52.88;87.58;;
72466;Laerm;60471;52.150;4.508;2024-02-04T10:30:01;70.02;51.95;88.20;;
72466;Laerm;60471;52.150;4.508;2024-02-04T10:32:28;70.27;52.61;88.72;;
72466;Laerm;60471;52.150;4.508;2024-02-04T10:34:54;70.21;53.02;87.39;;
72466;Laerm;60471;52.150;4.508;2024-02-04T10:37:20;70.08;50.83;89.57;;
72466;Laerm;60471;52.150;4.508;2024-02-04T10:39:46;70.12;52.77;88.05;;
72466;Laerm;60471;52.150;4.508;2024-02-04T10:42:14;70.04;51.61;88.04;;
72466;Laerm;60471;52.150;4.508;2024-02-04T10:44:45;70.12;52.30;88.90;;
72466;Laerm;60471;52.150;4.508;2024-02-04T10:47:22;69.92;53.21;87.80;;
72466;Laerm;60471;52.150;4.508;2024-02-04T10:49:52;70.17;53.08;88.94;;
72466;Laerm;60471;52.150;4.508;2024-02-04T10:52:23;70.19;53.73;88.57;;
72466;Laerm;60471;52.150;4.508;2024-02-04T10:54:53;69.96;53.29;88.43;;
72466;Laerm;60471;52.150;4.508;2024-02-04T10:57:22;70.32;52.74;88.84;;
72466;Laerm;60471;52.150;4.508;2024-02-04T10:59:51;70.28;52.62;88.93;;
72466;Laerm;60471;52.150;4.508;2024-02-04T11:02:20;70.30;52.52;87.75;;
72466;Laerm;60471;52.150;4.508;2024-02-04T11:04:49;70.30;52.79;88.39;;
72466;Laerm;60471;52.150;4.508;2024-02-04T11:07:17;70.51;53.62;89.38;;
72466;Laerm;60471;52.150;4.508;2024-02-04T11:09:46;70.28;52.50;88.63;;
72466;Laerm;60471;52.150;4.508;2024-02-04T11:12:18;70.36;52.25;88.36;;
72466;Laerm;60471;52.150;4.508;2024-02-04T11:14:53;69.67;51.74;88.79;;
72466;Laerm;60471;52.150;4.508;2024-02-04T11:20:36;69.71;53.25;88.94;;
72466;Laerm;60471;52.150;4.508;2024-02-04T11:23:34;61.09;53.99;76.93;;
72466;Laerm;60471;52.150;4.508;2024-02-04T11:26:04;70.44;52.83;88.61;;
72466;Laerm;60471;52.150;4.508;2024-02-04T11:28:31;70.67;54.13;88.40;;
72466;Laerm;60471;52.150;4.508;2024-02-04T11:30:58;70.52;54.34;87.73;;
72466;Laerm;60471;52.150;4.508;2024-02-04T11:33:24;70.68;55.24;87.67;;
72466;Laerm;60471;52.150;4.508;2024-02-04T11:36:04;69.93;54.43;89.09;;
72466;Laerm;60471;52.150;4.508;2024-02-04T11:38:35;70.36;53.39;89.45;;
72466;Laerm;60471;52.150;4.508;2024-02-04T11:41:03;70.01;54.42;87.52;;
72466;Laerm;60471;52.150;4.508;2024-02-04T11:43:33;70.17;53.09;88.33;;
72466;Laerm;60471;52.150;4.508;2024-02-04T11:46:03;69.92;55.55;88.52;;
72466;Laerm;60471;52.150;4.508;2024-02-04T11:48:33;69.88;52.51;88.92;;
72466;Laerm;60471;52.150;4.508;2024-02-04T11:51:00;70.61;53.53;88.49;;
72466;Laerm;60471;52.150;4.508;2024-02-04T11:53:29;70.13;53.80;87.09;;
72466;Laerm;60471;52.150;4.508;2024-02-04T11:56:00;70.17;53.59;89.44;;
72466;Laerm;60471;52.150;4.508;2024-02-04T11:58:30;70.47;53.66;88.80;;
72466;Laerm;60471;52.150;4.508;2024-02-04T12:00:57;70.77;54.12;90.06;;
72466;Laerm;60471;52.150;4.508;2024-02-04T12:03:31;69.86;52.17;88.52;;
72466;Laerm;60471;52.150;4.508;2024-02-04T12:05:58;69.96;53.46;88.17;;
72466;Laerm;60471;52.150;4.508;2024-02-04T12:08:27;70.28;54.89;88.19;;
72466;Laerm;60471;52.150;4.508;2024-02-04T12:10:54;70.36;54.65;88.16;;
72466;Laerm;60471;52.150;4.508;2024-02-04T12:13:20;70.10;54.34;87.37;;
72466;Laerm;60471;52.150;4.508;2024-02-04T12:15:47;70.31;54.14;88.49;;
72466;Laerm;60471;52.150;4.508;2024-02-04T12:18:14;69.84;53.19;87.61;;
72466;Laerm;60471;52.150;4.508;2024-02-04T12:20:43;70.65;54.49;87.47;;
72466;Laerm;60471;52.150;4.508;2024-02-04T12:23:10;70.63;54.88;87.84;;
72466;Laerm;60471;52.150;4.508;2024-02-04T12:25:38;69.60;54.44;88.35;;
72466;Laerm;60471;52.150;4.508;2024-02-04T12:28:05;70.27;53.82;87.83;;
72466;Laerm;60471;52.150;4.508;2024-02-04T12:30:32;70.07;53.74;88.57;;
72466;Laerm;60471;52.150;4.508;2024-02-04T12:33:03;70.25;53.79;89.02;;
72466;Laerm;60471;52.150;4.508;2024-02-04T12:35:32;70.22;54.08;88.08;;
72466;Laerm;60471;52.150;4.508;2024-02-04T12:38:00;70.13;52.76;88.58;;
72466;Laerm;60471;52.150;4.508;2024-02-04T12:40:29;70.14;54.26;88.99;;
72466;Laerm;60471;52.150;4.508;2024-02-04T12:45:24;69.96;53.82;88.93;;
72466;Laerm;60471;52.150;4.508;2024-02-04T12:47:52;70.19;53.86;87.70;;
72466;Laerm;60471;52.150;4.508;2024-02-04T12:50:20;70.08;54.22;89.47;;
72466;Laerm;60471;52.150;4.508;2024-02-04T12:52:49;70.08;52.72;88.13;;
72466;Laerm;60471;52.150;4.508;2024-02-04T12:55:24;70.09;54.28;88.14;;
72466;Laerm;60471;52.150;4.508;2024-02-04T12:58:01;70.25;54.45;89.59;;
72466;Laerm;60471;52.150;4.508;2024-02-04T13:00:27;70.79;53.54;87.40;;
72466;Laerm;60471;52.150;4.508;2024-02-04T13:02:54;70.40;54.98;90.34;;
72466;Laerm;60471;52.150;4.508;2024-02-04T13:05:25;70.45;53.64;88.16;;
72466;Laerm;60471;52.150;4.508;2024-02-04T13:07:58;70.13;54.24;89.31;;
72466;Laerm;60471;52.150;4.508;2024-02-04T13:10:30;70.24;54.37;87.35;;
72466;Laerm;60471;52.150;4.508;2024-02-04T13:13:05;70.17;54.46;89.49;;
72466;Laerm;60471;52.150;4.508;2024-02-04T13:15:53;69.93;55.55;87.59;;
72466;Laerm;60471;52.150;4.508;2024-02-04T13:18:20;70.26;53.82;88.43;;
72466;Laerm;60471;52.150;4.508;2024-02-04T13:20:46;70.55;54.28;88.09;;
72466;Laerm;60471;52.150;4.508;2024-02-04T13:23:12;70.31;53.26;88.06;;
72466;Laerm;60471;52.150;4.508;2024-02-04T13:25:39;70.59;54.07;88.98;;
72466;Laerm;60471;52.150;4.508;2024-02-04T13:28:05;70.33;52.91;88.60;;
72466;Laerm;60471;52.150;4.508;2024-02-04T13:30:31;70.74;54.96;87.72;;
72466;Laerm;60471;52.150;4.508;2024-02-04T13:32:58;70.22;52.85;89.62;;
72466;Laerm;60471;52.150;4.508;2024-02-04T13:35:24;70.70;53.81;87.82;;
72466;Laerm;60471;52.150;4.508;2024-02-04T13:37:50;70.28;54.17;87.95;;
72466;Laerm;60471;52.150;4.508;2024-02-04T13:40:22;70.30;53.88;87.44;;
72466;Laerm;60471;52.150;4.508;2024-02-04T13:42:50;70.06;52.53;88.67;;
72466;Laerm;60471;52.150;4.508;2024-02-04T13:45:16;70.39;54.64;89.66;;
72466;Laerm;60471;52.150;4.508;2024-02-04T13:47:45;70.23;54.03;88.56;;
72466;Laerm;60471;52.150;4.508;2024-02-04T13:50:12;70.25;53.40;89.29;;
72466;Laerm;60471;52.150;4.508;2024-02-04T13:52:39;70.25;54.49;86.59;;
72466;Laerm;60471;52.150;4.508;2024-02-04T13:55:06;70.67;54.75;88.31;;